createdAt,value
2022-08-05T00:02:21.194Z,6.50
2022-08-05T00:04:47.804Z,7.40
2022-08-05T00:08:00.546Z,6.27
2022-08-05T00:10:09.241Z,8.17
2022-08-05T00:12:35.992Z,8.13
2022-08-05T00:15:57.802Z,7.90
2022-08-05T00:18:09.105Z,9.03
2022-08-05T00:20:48.005Z,7.87
2022-08-05T00:23:15.437Z,8.90
2022-08-05T00:25:45.541Z,8.53
2022-08-05T00:28:13.260Z,8.77
2022-08-05T00:30:41.115Z,8.40
2022-08-05T00:34:42.372Z,9.90
2022-08-05T00:36:16.382Z,7.83
2022-08-05T00:38:44.293Z,8.50
2022-08-05T00:41:11.635Z,9.50
2022-08-05T00:43:46.613Z,8.30
2022-08-05T00:46:14.253Z,7.73
2022-08-05T00:48:51.317Z,8.10
2022-08-05T00:51:51.825Z,9.60
2022-08-05T00:54:06.134Z,8.30
2022-08-05T00:56:32.774Z,7.40
2022-08-05T00:59:00.161Z,8.57
2022-08-05T01:01:42.678Z,9.10
2022-08-05T01:04:14.086Z,7.90
2022-08-05T01:06:41.053Z,8.03
2022-08-05T01:09:10.315Z,7.90
2022-08-05T01:11:37.776Z,8.00
2022-08-05T01:14:09.242Z,8.43
2022-08-05T01:16:48.057Z,8.23
2022-08-05T01:19:56.230Z,8.77
2022-08-05T01:22:18.904Z,8.37
2022-08-05T01:24:50.721Z,7.50
2022-08-05T01:27:50.523Z,8.80
2022-08-05T01:30:34.740Z,8.73
2022-08-05T01:33:05.030Z,10.53
2022-08-05T01:35:50.606Z,11.17
2022-08-05T01:38:27.546Z,8.70
2022-08-05T01:40:58.958Z,9.43
2022-08-05T01:43:26.745Z,10.10
2022-08-05T01:45:56.292Z,8.70
2022-08-05T01:48:25.279Z,8.53
2022-08-05T01:50:52.547Z,8.80
2022-08-05T01:53:54.711Z,8.57
2022-08-05T01:56:09.648Z,8.73
2022-08-05T01:58:45.120Z,8.20
2022-08-05T02:01:13.444Z,9.47
2022-08-05T02:03:44.313Z,8.27
2022-08-05T02:06:23.971Z,8.30
2022-08-05T02:08:59.245Z,8.57
2022-08-05T02:11:33.107Z,8.60
2022-08-05T02:14:04.079Z,9.53
2022-08-05T02:16:35.233Z,9.13
2022-08-05T02:19:34.317Z,9.07
2022-08-05T02:22:25.667Z,10.67
2022-08-05T02:25:00.053Z,10.00
2022-08-05T02:27:30.019Z,9.20
2022-08-05T02:30:13.938Z,9.00
2022-08-05T02:32:43.255Z,8.87
2022-08-05T02:35:19.132Z,8.07
2022-08-05T02:37:55.738Z,11.73
2022-08-05T02:40:26.090Z,8.60
2022-08-05T02:42:54.375Z,8.10
2022-08-05T02:45:24.095Z,11.57
2022-08-05T02:47:58.558Z,8.40
2022-08-05T02:50:37.454Z,8.40
2022-08-05T02:53:04.120Z,9.60
2022-08-05T02:55:55.079Z,9.43
2022-08-05T02:58:20.449Z,8.13
2022-08-05T03:00:48.168Z,9.43
2022-08-05T03:03:16.950Z,8.70
2022-08-05T03:06:54.112Z,8.73
2022-08-05T03:08:31.038Z,8.00
2022-08-05T03:11:55.826Z,8.20
2022-08-05T03:13:51.940Z,8.37
2022-08-05T03:16:29.458Z,9.30
2022-08-05T03:18:58.000Z,8.37
2022-08-05T03:21:24.527Z,9.20
2022-08-05T03:23:55.536Z,8.73
2022-08-05T03:26:32.041Z,9.03
2022-08-05T03:28:59.478Z,9.17
2022-08-05T03:31:57.242Z,8.33
2022-08-05T03:34:12.912Z,8.70
2022-08-05T03:36:39.443Z,8.83
2022-08-05T03:39:08.102Z,8.80
2022-08-05T03:41:46.797Z,8.30
2022-08-05T03:44:13.809Z,8.47
2022-08-05T03:46:46.711Z,9.33
2022-08-05T03:49:13.235Z,10.93
2022-08-05T03:52:36.555Z,9.03
2022-08-05T03:56:01.591Z,9.23
2022-08-05T03:57:49.011Z,8.70
2022-08-05T04:00:16.733Z,9.03
2022-08-05T04:02:58.612Z,9.53
2022-08-05T04:05:35.612Z,7.83
2022-08-05T04:08:14.601Z,9.50
2022-08-05T04:10:50.166Z,9.87
2022-08-05T04:13:18.582Z,8.80
2022-08-05T04:15:52.743Z,8.93
2022-08-05T04:18:30.245Z,8.67
2022-08-05T04:20:57.789Z,9.40
2022-08-05T04:24:05.322Z,8.50
2022-08-05T04:26:15.705Z,9.50
2022-08-05T04:28:51.069Z,9.60
2022-08-05T04:31:19.359Z,11.77
2022-08-05T04:34:19.273Z,8.10
2022-08-05T04:36:45.436Z,10.50
2022-08-05T04:39:13.428Z,7.97
2022-08-05T04:41:39.989Z,9.83
2022-08-05T04:44:09.398Z,9.30
2022-08-05T04:46:37.151Z,9.50
2022-08-05T04:49:05.284Z,9.83
2022-08-05T04:51:38.950Z,9.13
2022-08-05T04:54:05.554Z,9.53
2022-08-05T04:56:36.852Z,8.87
2022-08-05T04:59:13.963Z,9.90
2022-08-05T05:02:06.686Z,8.00
2022-08-05T05:04:35.101Z,8.23
2022-08-05T05:07:04.785Z,8.97
2022-08-05T05:09:37.301Z,9.03
2022-08-05T05:12:05.247Z,9.50
2022-08-05T05:14:33.013Z,8.77
2022-08-05T05:17:03.227Z,9.07
2022-08-05T05:19:36.405Z,8.80
2022-08-05T05:22:23.613Z,9.70
2022-08-05T05:24:57.164Z,8.83
2022-08-05T05:27:41.245Z,7.70
2022-08-05T05:30:28.793Z,9.50
2022-08-05T05:33:00.454Z,9.40
2022-08-05T05:35:31.524Z,8.43
2022-08-05T05:38:03.253Z,8.83
2022-08-05T05:40:32.520Z,8.33
2022-08-05T05:43:02.180Z,8.73
2022-08-05T05:45:28.906Z,9.30
2022-08-05T05:48:06.011Z,8.30
2022-08-05T05:50:44.399Z,9.80
2022-08-05T05:53:21.171Z,8.60
2022-08-05T05:55:51.710Z,8.90
2022-08-05T05:58:31.763Z,9.03
2022-08-05T06:01:12.180Z,8.57
2022-08-05T06:04:00.376Z,8.30
2022-08-05T06:06:28.064Z,9.30
2022-08-05T06:08:57.389Z,8.60
2022-08-05T06:11:23.943Z,9.13
2022-08-05T06:13:54.097Z,8.67
2022-08-05T06:16:30.644Z,8.93
2022-08-05T06:19:01.090Z,9.00
2022-08-05T06:21:37.106Z,9.17
2022-08-05T06:24:12.398Z,8.17
2022-08-05T06:26:51.624Z,9.07
2022-08-05T06:29:26.475Z,8.20
2022-08-05T06:32:21.207Z,9.00
2022-08-05T06:34:56.855Z,8.60
2022-08-05T06:37:57.686Z,8.83
2022-08-05T06:40:18.170Z,8.13
2022-08-05T06:42:52.353Z,8.10
2022-08-05T06:45:21.013Z,8.30
2022-08-05T06:48:36.841Z,8.97
2022-08-05T06:50:55.544Z,8.13
2022-08-05T06:53:27.602Z,8.97
2022-08-05T06:55:55.823Z,9.70
2022-08-05T06:58:34.858Z,8.97
2022-08-05T07:01:04.525Z,8.80
2022-08-05T07:03:33.176Z,8.53
2022-08-05T07:06:05.963Z,8.57
2022-08-05T07:08:41.922Z,8.87
2022-08-05T07:11:15.562Z,8.23
2022-08-05T07:14:01.328Z,8.60
2022-08-05T07:18:00.015Z,8.87
2022-08-05T07:22:28.921Z,8.60
2022-08-05T07:25:24.050Z,8.23
2022-08-05T07:27:57.363Z,8.80
2022-08-05T07:30:32.638Z,8.20
2022-08-05T07:33:01.251Z,9.20
2022-08-05T07:36:01.748Z,7.80
2022-08-05T07:38:33.008Z,8.40
2022-08-05T07:42:06.830Z,9.83
2022-08-05T07:43:55.111Z,7.63
2022-08-05T07:46:26.010Z,9.03
2022-08-05T07:49:02.310Z,8.30
2022-08-05T07:51:37.158Z,7.80
2022-08-05T07:54:09.478Z,8.30
2022-08-05T07:57:00.727Z,7.60
2022-08-05T07:59:38.244Z,8.30
2022-08-05T08:02:16.041Z,8.57
2022-08-05T08:04:45.715Z,9.00
2022-08-05T08:07:13.236Z,9.40
2022-08-05T08:09:39.795Z,7.70
2022-08-05T08:12:19.887Z,8.00
2022-08-05T08:14:53.239Z,7.73
2022-08-05T08:17:19.717Z,8.17
2022-08-05T08:20:23.058Z,8.87
2022-08-05T08:22:35.207Z,8.23
2022-08-05T08:25:03.287Z,7.67
2022-08-05T08:27:35.800Z,9.23
2022-08-05T08:30:29.414Z,9.23
2022-08-05T08:32:58.583Z,8.20
2022-08-05T08:35:35.179Z,8.63
2022-08-05T08:38:08.053Z,9.23
2022-08-05T08:40:35.370Z,7.53
2022-08-05T08:45:04.465Z,8.00
2022-08-05T08:45:50.010Z,9.60
2022-08-05T08:48:36.125Z,8.93
2022-08-05T08:52:02.218Z,8.30
2022-08-05T08:53:52.068Z,7.87
2022-08-05T08:56:19.336Z,7.87
2022-08-05T08:58:49.560Z,7.60
2022-08-05T09:01:18.762Z,8.70
2022-08-05T09:03:55.263Z,10.33
2022-08-05T09:06:28.059Z,8.20
2022-08-05T09:08:57.147Z,7.50
2022-08-05T09:11:53.194Z,7.00
2022-08-05T09:14:56.432Z,8.63
2022-08-05T09:16:59.865Z,8.30
2022-08-05T09:19:27.901Z,7.90
2022-08-05T09:22:22.028Z,7.87
2022-08-05T09:25:23.858Z,8.50
2022-08-05T09:28:04.744Z,8.60
2022-08-05T09:30:34.448Z,8.03
2022-08-05T09:33:04.768Z,8.30
2022-08-05T09:35:31.832Z,7.70
2022-08-05T09:38:12.119Z,8.27
2022-08-05T09:40:52.639Z,7.43
2022-08-05T09:43:41.055Z,8.00
2022-08-05T09:46:30.396Z,8.67
2022-08-05T09:49:07.844Z,8.23
2022-08-05T09:51:48.946Z,9.83
2022-08-05T09:54:21.395Z,13.00
2022-08-05T09:56:55.954Z,10.60
2022-08-05T09:59:27.353Z,8.73
2022-08-05T10:01:57.946Z,8.00
2022-08-05T10:04:35.835Z,7.67
2022-08-05T10:07:14.133Z,8.07
2022-08-05T10:10:04.415Z,8.20
2022-08-05T10:12:49.725Z,8.47
2022-08-05T10:15:23.058Z,8.60
2022-08-05T10:18:16.947Z,8.17
2022-08-05T10:21:08.347Z,9.17
2022-08-05T10:23:59.760Z,8.00
2022-08-05T10:26:32.408Z,8.70
2022-08-05T10:29:00.481Z,8.53
2022-08-05T10:32:52.875Z,8.43
2022-08-05T10:34:13.817Z,7.77
2022-08-05T10:36:41.752Z,8.50
2022-08-05T10:39:25.072Z,9.17
2022-08-05T10:42:32.582Z,7.70
2022-08-05T10:45:01.748Z,8.23
2022-08-05T10:47:33.547Z,6.33
2022-08-05T10:50:31.749Z,6.77
2022-08-05T10:53:00.260Z,6.30
2022-08-05T10:55:27.457Z,6.07
2022-08-05T10:58:11.630Z,6.50
2022-08-05T11:00:46.750Z,5.27
2022-08-05T11:03:24.291Z,5.93
2022-08-05T11:06:14.613Z,5.83
2022-08-05T11:09:13.242Z,6.43
2022-08-05T11:11:52.474Z,5.90
2022-08-05T11:14:57.412Z,6.23
2022-08-05T11:17:59.924Z,5.53
2022-08-05T11:20:32.874Z,6.00
2022-08-05T11:23:05.972Z,6.37
2022-08-05T11:26:05.552Z,5.83
2022-08-05T11:28:30.621Z,5.90
2022-08-05T11:31:02.344Z,5.83
2022-08-05T11:33:47.743Z,5.83
2022-08-05T11:36:34.376Z,5.50
2022-08-05T11:39:05.544Z,5.60
2022-08-05T11:41:54.640Z,6.63
2022-08-05T11:44:40.623Z,6.00
2022-08-05T11:47:14.242Z,5.40
2022-08-05T11:49:49.536Z,6.27
2022-08-05T11:52:24.341Z,5.90
2022-08-05T11:54:57.525Z,5.60
2022-08-05T11:58:08.289Z,5.20
2022-08-05T12:00:31.035Z,6.20
2022-08-05T12:02:57.692Z,5.80
2022-08-05T12:05:36.054Z,6.37
2022-08-05T12:08:09.790Z,5.50
2022-08-05T12:10:46.005Z,5.00
2022-08-05T12:13:47.259Z,5.43
2022-08-05T12:16:18.125Z,5.13
2022-08-05T12:18:49.318Z,5.50
2022-08-05T12:21:24.133Z,6.30
2022-08-05T12:24:08.759Z,8.60
2022-08-05T12:26:39.722Z,5.20
2022-08-05T12:29:23.778Z,5.63
2022-08-05T12:31:54.598Z,6.20
2022-08-05T12:34:25.813Z,5.97
2022-08-05T12:36:54.633Z,7.03
2022-08-05T12:39:23.680Z,6.27
2022-08-05T12:42:01.394Z,6.70
2022-08-05T12:44:33.201Z,6.03
2022-08-05T12:47:01.750Z,7.80
2022-08-05T12:50:04.854Z,6.73
2022-08-05T12:52:32.440Z,7.03
2022-08-05T12:55:22.578Z,7.40
2022-08-05T12:58:50.348Z,6.93
2022-08-05T13:01:59.954Z,6.37
2022-08-05T13:03:32.455Z,5.97
2022-08-05T13:05:59.898Z,6.73
2022-08-05T13:08:30.216Z,6.20
2022-08-05T13:11:01.159Z,7.80
2022-08-05T13:14:04.874Z,6.07
2022-08-05T13:16:16.917Z,6.93
2022-08-05T13:18:57.720Z,6.50
2022-08-05T13:21:28.342Z,7.07
2022-08-05T13:24:05.787Z,6.73
2022-08-05T13:26:35.382Z,6.87
2022-08-05T13:29:01.863Z,6.93
2022-08-05T13:31:33.826Z,7.37
2022-08-05T13:34:24.373Z,6.70
2022-08-05T13:36:53.135Z,6.90
2022-08-05T13:40:12.918Z,6.77
2022-08-05T13:42:06.434Z,6.47
2022-08-05T13:44:34.808Z,6.40
2022-08-05T13:47:02.326Z,6.37
2022-08-05T13:49:35.579Z,6.20
2022-08-05T13:52:18.629Z,6.70
2022-08-05T13:54:56.668Z,7.60
2022-08-05T13:57:26.590Z,7.23
2022-08-05T14:00:13.191Z,6.90
2022-08-05T14:02:39.727Z,7.87
2022-08-05T14:05:15.463Z,7.90
2022-08-05T14:07:59.475Z,7.60
2022-08-05T14:10:31.010Z,9.23
2022-08-05T14:12:58.684Z,7.27
2022-08-05T14:16:05.574Z,7.40
2022-08-05T14:18:17.435Z,7.20
2022-08-05T14:20:47.673Z,7.67
2022-08-05T14:23:23.358Z,7.80
2022-08-05T14:25:53.948Z,7.77
2022-08-05T14:28:26.199Z,7.87
2022-08-05T14:30:54.247Z,7.80
2022-08-05T14:33:22.592Z,7.37
2022-08-05T14:35:50.741Z,8.10
2022-08-05T14:38:32.385Z,7.43
2022-08-05T14:41:03.586Z,8.30
2022-08-05T14:43:59.434Z,8.20
2022-08-05T14:46:19.776Z,7.67
2022-08-05T14:48:49.152Z,8.00
2022-08-05T14:51:17.681Z,7.83
2022-08-05T14:53:44.973Z,8.60
2022-08-05T14:56:12.064Z,7.63
2022-08-05T14:58:47.708Z,8.77
2022-08-05T15:01:47.064Z,7.83
2022-08-05T15:04:09.930Z,8.50
2022-08-05T15:06:38.923Z,7.80
2022-08-05T15:09:07.135Z,8.43
2022-08-05T15:11:53.272Z,9.90
2022-08-05T15:14:34.490Z,8.20
2022-08-05T15:17:04.827Z,9.77
2022-08-05T15:19:32.100Z,8.20
2022-08-05T15:22:01.308Z,9.13
2022-08-05T15:24:28.557Z,9.00
2022-08-05T15:26:55.792Z,8.77
2022-08-05T15:29:22.951Z,9.10
2022-08-05T15:31:52.938Z,8.90
2022-08-05T15:34:32.112Z,8.73
2022-08-05T15:37:03.539Z,8.70
2022-08-05T15:41:01.610Z,9.53
2022-08-05T15:42:54.008Z,9.53
2022-08-05T15:45:06.789Z,9.20
2022-08-05T15:47:36.051Z,9.20
2022-08-05T15:50:03.597Z,10.23
2022-08-05T15:52:53.586Z,9.37
2022-08-05T15:55:19.312Z,9.70
2022-08-05T15:57:51.276Z,9.20
2022-08-05T16:00:26.518Z,9.83
2022-08-05T16:02:59.505Z,10.93
2022-08-05T16:05:28.201Z,11.67
2022-08-05T16:07:57.194Z,8.73
2022-08-05T16:10:25.509Z,9.03
2022-08-05T16:12:53.417Z,9.30
2022-08-05T16:15:23.061Z,10.10
2022-08-05T16:17:57.372Z,10.20
2022-08-05T16:20:25.294Z,10.20
2022-08-05T16:22:51.784Z,9.43
2022-08-05T16:25:18.696Z,9.93
2022-08-05T16:28:00.057Z,10.67
2022-08-05T16:30:32.259Z,10.97
2022-08-05T16:32:59.431Z,10.90
2022-08-05T16:35:28.158Z,10.10
2022-08-05T16:38:02.683Z,10.00
2022-08-05T16:40:43.041Z,11.10
2022-08-05T16:43:18.898Z,9.50
2022-08-05T16:46:04.343Z,10.70
2022-08-05T16:48:35.095Z,11.90
2022-08-05T16:51:02.044Z,11.40
2022-08-05T16:53:32.134Z,11.43
2022-08-05T16:56:17.174Z,10.83
2022-08-05T16:58:43.895Z,11.50
2022-08-05T17:01:10.802Z,9.03
2022-08-05T17:03:37.792Z,10.00
2022-08-05T17:06:05.822Z,10.40
2022-08-05T17:08:51.783Z,10.30
2022-08-05T17:11:19.273Z,11.13
2022-08-05T17:13:45.927Z,9.77
2022-08-05T17:16:33.038Z,10.23
2022-08-05T17:18:59.545Z,9.20
2022-08-05T17:21:26.121Z,11.00
2022-08-05T17:24:19.634Z,10.53
2022-08-05T17:26:51.140Z,8.67
2022-08-05T17:29:17.963Z,9.60
2022-08-05T17:31:58.470Z,9.80
2022-08-05T17:34:30.130Z,11.40
2022-08-05T17:36:58.776Z,9.77
2022-08-05T17:39:33.204Z,9.40
2022-08-05T17:42:18.279Z,9.80
2022-08-05T17:44:50.428Z,8.50
2022-08-05T17:47:22.001Z,8.50
2022-08-05T17:50:04.234Z,9.73
2022-08-05T17:52:52.788Z,9.43
2022-08-05T17:55:22.649Z,8.63
2022-08-05T17:57:54.262Z,7.87
2022-08-05T18:00:20.836Z,8.17
2022-08-05T18:02:55.080Z,9.13
2022-08-05T18:05:22.025Z,7.87
2022-08-05T18:07:48.567Z,8.73
2022-08-05T18:10:20.630Z,7.63
2022-08-05T18:12:48.587Z,7.60
2022-08-05T18:15:15.152Z,8.00
2022-08-05T18:17:58.812Z,6.67
2022-08-05T18:20:29.220Z,6.30
2022-08-05T18:22:58.668Z,6.53
2022-08-05T18:25:33.159Z,6.70
2022-08-05T18:28:01.804Z,6.40
2022-08-05T18:30:33.206Z,7.40
2022-08-05T18:33:00.496Z,7.43
2022-08-05T18:36:00.723Z,7.03
2022-08-05T18:38:19.622Z,6.20
2022-08-05T18:41:57.225Z,6.00
2022-08-05T18:43:42.642Z,7.10
2022-08-05T18:46:10.142Z,6.23
2022-08-05T18:48:41.636Z,6.97
2022-08-05T18:52:05.107Z,7.30
2022-08-05T18:54:14.237Z,6.40
2022-08-05T18:56:40.745Z,5.70
2022-08-05T18:59:43.058Z,6.17
2022-08-05T19:01:58.466Z,5.70
2022-08-05T19:04:26.177Z,6.97
2022-08-05T19:06:53.748Z,5.50
2022-08-05T19:09:21.307Z,5.33
2022-08-05T19:12:00.568Z,5.20
2022-08-05T19:14:44.752Z,5.80
2022-08-05T19:17:15.391Z,5.60
2022-08-05T19:19:46.889Z,6.17
2022-08-05T19:22:17.248Z,5.90
2022-08-05T19:24:56.118Z,6.90
2022-08-05T19:27:24.442Z,5.60
2022-08-05T19:29:57.372Z,4.90
2022-08-05T19:32:26.335Z,4.90
2022-08-05T19:34:55.818Z,5.50
2022-08-05T19:37:29.956Z,4.53
2022-08-05T19:40:10.947Z,5.90
2022-08-05T19:42:38.896Z,5.60
2022-08-05T19:45:07.251Z,5.77
2022-08-05T19:47:37.208Z,5.77
2022-08-05T19:50:07.536Z,5.07
2022-08-05T19:52:34.475Z,5.33
2022-08-05T19:55:07.074Z,5.90
2022-08-05T19:57:47.647Z,6.20
2022-08-05T20:00:22.327Z,5.47
2022-08-05T20:02:49.104Z,6.40
2022-08-05T20:05:16.716Z,6.83
2022-08-05T20:07:55.008Z,5.47
2022-08-05T20:10:24.469Z,4.50
2022-08-05T20:12:51.920Z,5.57
2022-08-05T20:15:48.302Z,5.27
2022-08-05T20:18:10.384Z,7.50
2022-08-05T20:20:55.080Z,6.70
2022-08-05T20:23:22.926Z,5.40
2022-08-05T20:25:49.444Z,4.80
2022-08-05T20:28:18.904Z,4.80
2022-08-05T20:30:45.436Z,4.80
2022-08-05T20:33:14.364Z,4.90
2022-08-05T20:35:45.606Z,5.30
2022-08-05T20:38:20.174Z,4.13
2022-08-05T20:40:50.513Z,4.70
2022-08-05T20:43:17.427Z,4.70
2022-08-05T20:46:00.236Z,4.53
2022-08-05T20:48:27.205Z,3.97
2022-08-05T20:50:54.025Z,4.50
2022-08-05T20:53:36.894Z,4.83
2022-08-05T20:56:09.738Z,4.13
2022-08-05T20:58:37.052Z,4.37
2022-08-05T21:01:04.613Z,4.80
2022-08-05T21:03:34.322Z,6.07
2022-08-05T21:06:01.824Z,4.23
2022-08-05T21:08:41.442Z,4.23
2022-08-05T21:11:11.669Z,5.00
2022-08-05T21:13:56.211Z,5.30
2022-08-05T21:16:30.134Z,3.90
2022-08-05T21:19:00.523Z,5.10
2022-08-05T21:21:39.515Z,5.27
2022-08-05T21:24:12.788Z,4.00
2022-08-05T21:26:41.377Z,5.13
2022-08-05T21:29:10.101Z,5.07
2022-08-05T21:31:41.050Z,5.50
2022-08-05T21:34:10.437Z,4.60
2022-08-05T21:36:37.852Z,4.10
2022-08-05T21:39:04.846Z,4.00
2022-08-05T21:41:34.191Z,4.10
2022-08-05T21:44:04.389Z,5.50
2022-08-05T21:46:34.222Z,3.70
2022-08-05T21:49:01.889Z,3.80
2022-08-05T21:52:27.156Z,3.90
2022-08-05T21:54:15.023Z,4.17
2022-08-05T21:56:44.501Z,3.73
2022-08-05T21:59:23.994Z,4.97
2022-08-05T22:01:51.501Z,4.47
2022-08-05T22:04:21.225Z,4.10
2022-08-05T22:06:52.411Z,4.43
2022-08-05T22:09:21.067Z,4.63
2022-08-05T22:11:48.879Z,4.87
2022-08-05T22:14:35.340Z,4.73
2022-08-05T22:17:07.061Z,4.63
2022-08-05T22:20:02.747Z,4.40
2022-08-05T22:22:27.083Z,4.20
2022-08-05T22:25:18.091Z,4.03
2022-08-05T22:28:08.498Z,5.10
2022-08-05T22:30:44.329Z,3.43
2022-08-05T22:33:55.776Z,3.80
2022-08-05T22:36:14.155Z,3.97
2022-08-05T22:38:42.559Z,3.30
2022-08-05T22:41:10.172Z,4.90
2022-08-05T22:43:37.994Z,3.87
2022-08-05T22:46:13.149Z,4.40
2022-08-05T22:48:49.596Z,5.07
2022-08-05T22:51:23.298Z,5.23
2022-08-05T22:54:02.604Z,4.73
2022-08-05T22:56:30.409Z,4.20
2022-08-05T22:59:00.008Z,5.57
2022-08-05T23:02:04.015Z,4.07
2022-08-05T23:04:17.196Z,4.97
2022-08-05T23:06:43.664Z,4.60
2022-08-05T23:09:27.194Z,4.47
2022-08-05T23:11:58.954Z,3.77
2022-08-05T23:14:32.021Z,4.30
2022-08-05T23:17:18.585Z,4.93
2022-08-05T23:19:56.132Z,3.80
2022-08-05T23:22:27.463Z,4.10
2022-08-05T23:24:54.632Z,5.60
2022-08-05T23:27:21.247Z,4.83
2022-08-05T23:29:50.584Z,5.20
2022-08-05T23:32:17.419Z,4.07
2022-08-05T23:34:49.928Z,4.60
2022-08-05T23:37:18.228Z,4.10
2022-08-05T23:39:54.545Z,4.73
2022-08-05T23:42:23.579Z,5.07
2022-08-05T23:44:56.366Z,5.80
2022-08-05T23:47:24.822Z,4.60
2022-08-05T23:49:52.007Z,4.83
2022-08-05T23:52:32.368Z,4.03
2022-08-05T23:55:07.054Z,4.30
2022-08-05T23:57:36.073Z,3.87
